createdAt,value
2017-04-26T00:00:57.229Z,92.50
2017-04-26T00:01:55.668Z,92.50
2017-04-26T00:02:54.088Z,92.50
2017-04-26T00:03:52.587Z,92.50
2017-04-26T00:04:51.737Z,92.60
2017-04-26T00:05:50.138Z,92.50
2017-04-26T00:06:49.356Z,92.50
2017-04-26T00:07:47.832Z,92.40
2017-04-26T00:08:46.205Z,92.30
2017-04-26T00:09:44.631Z,92.30
2017-04-26T00:10:43.061Z,92.30
2017-04-26T00:11:41.562Z,92.40
2017-04-26T00:12:40.006Z,92.40
2017-04-26T00:13:38.470Z,92.40
2017-04-26T00:14:37.244Z,92.30
2017-04-26T00:15:35.729Z,92.50
2017-04-26T00:16:34.147Z,92.60
2017-04-26T00:17:32.508Z,92.70
2017-04-26T00:18:31.726Z,92.70
2017-04-26T00:19:30.162Z,92.80
2017-04-26T00:20:29.293Z,92.80
2017-04-26T00:21:27.779Z,92.70
2017-04-26T00:22:26.602Z,92.60
2017-04-26T00:23:25.000Z,92.50
2017-04-26T00:24:23.633Z,92.50
2017-04-26T00:25:22.795Z,92.60
2017-04-26T00:26:21.211Z,92.50
2017-04-26T00:27:19.754Z,92.50
2017-04-26T00:28:18.161Z,92.40
2017-04-26T00:29:16.530Z,92.30
2017-04-26T00:30:14.987Z,92.30
2017-04-26T00:31:14.133Z,92.20
2017-04-26T00:32:12.591Z,92.30
2017-04-26T00:33:11.721Z,92.30
2017-04-26T00:34:10.838Z,92.30
2017-04-26T00:35:09.224Z,92.20
2017-04-26T00:36:07.622Z,92.30
2017-04-26T00:37:05.990Z,92.60
2017-04-26T00:38:04.473Z,92.30
2017-04-26T00:39:02.950Z,92.30
2017-04-26T00:40:02.214Z,92.30
2017-04-26T00:42:00.225Z,92.20
2017-04-26T00:42:58.691Z,92.30
2017-04-26T00:43:57.092Z,92.40
2017-04-26T00:44:55.819Z,92.50
2017-04-26T00:45:54.942Z,92.30
2017-04-26T00:46:53.379Z,92.50
2017-04-26T00:47:51.764Z,92.40
2017-04-26T00:48:50.249Z,92.60
2017-04-26T00:49:48.702Z,92.60
2017-04-26T00:50:47.086Z,92.60
2017-04-26T00:51:45.452Z,92.70
2017-04-26T00:52:43.831Z,93.00
2017-04-26T00:53:42.247Z,92.80
2017-04-26T00:54:40.652Z,92.90
2017-04-26T00:55:39.136Z,92.80
2017-04-26T00:56:37.505Z,92.70
2017-04-26T00:57:35.930Z,92.70
2017-04-26T00:58:34.330Z,92.70
2017-04-26T00:59:32.729Z,93.10
2017-04-26T01:00:31.215Z,92.80
2017-04-26T01:01:29.603Z,92.90
2017-04-26T01:02:28.026Z,93.10
2017-04-26T01:03:26.387Z,93.00
2017-04-26T01:04:24.792Z,93.10
2017-04-26T01:05:23.247Z,93.10
2017-04-26T01:06:21.706Z,93.20
2017-04-26T01:07:20.077Z,93.20
2017-04-26T01:08:18.507Z,93.30
2017-04-26T01:09:17.699Z,93.20
2017-04-26T01:10:16.099Z,93.10
2017-04-26T01:11:14.549Z,93.20
2017-04-26T01:12:13.459Z,93.30
2017-04-26T01:13:11.897Z,93.30
2017-04-26T01:14:11.050Z,93.20
2017-04-26T01:15:09.823Z,93.20
2017-04-26T01:16:11.404Z,93.20
2017-04-26T01:17:09.818Z,93.10
2017-04-26T01:18:08.222Z,93.30
2017-04-26T01:19:06.676Z,93.30
2017-04-26T01:20:05.077Z,93.30
2017-04-26T01:21:03.835Z,93.20
2017-04-26T01:22:03.005Z,93.70
2017-04-26T01:23:01.397Z,93.30
2017-04-26T01:24:00.561Z,93.60
2017-04-26T01:24:59.010Z,93.40
2017-04-26T01:25:57.425Z,93.40
2017-04-26T01:26:56.607Z,93.50
2017-04-26T01:27:55.300Z,93.30
2017-04-26T01:28:53.718Z,93.40
2017-04-26T01:29:52.171Z,93.30
2017-04-26T01:30:50.555Z,93.20
2017-04-26T01:31:49.014Z,93.20
2017-04-26T01:32:47.473Z,93.20
2017-04-26T01:33:45.885Z,93.30
2017-04-26T01:34:44.298Z,93.20
2017-04-26T01:35:42.762Z,93.20
2017-04-26T01:36:41.965Z,93.10
2017-04-26T01:37:40.480Z,93.20
2017-04-26T01:38:38.937Z,93.10
2017-04-26T01:39:37.373Z,93.00
2017-04-26T01:40:35.755Z,93.00
2017-04-26T01:41:34.143Z,92.90
2017-04-26T01:42:32.629Z,92.90
2017-04-26T01:43:31.073Z,92.80
2017-04-26T01:44:29.536Z,92.80
2017-04-26T01:45:27.934Z,92.70
2017-04-26T01:46:26.325Z,92.70
2017-04-26T01:47:24.719Z,92.80
2017-04-26T01:48:23.872Z,92.70
2017-04-26T01:49:22.288Z,92.70
2017-04-26T01:50:20.741Z,92.70
2017-04-26T01:51:19.879Z,92.60
2017-04-26T01:52:18.278Z,92.60
2017-04-26T01:53:16.674Z,92.60
2017-04-26T01:54:15.443Z,92.70
2017-04-26T01:55:14.638Z,92.80
2017-04-26T01:56:13.064Z,92.90
2017-04-26T01:57:11.463Z,92.80
2017-04-26T01:58:10.612Z,92.90
2017-04-26T01:59:09.332Z,92.80
2017-04-26T02:00:07.766Z,92.90
2017-04-26T02:02:05.102Z,92.90
2017-04-26T02:03:03.627Z,92.80
2017-04-26T02:04:02.325Z,92.90
2017-04-26T02:05:00.806Z,92.90
2017-04-26T02:05:59.304Z,92.90
2017-04-26T02:06:58.021Z,92.90
2017-04-26T02:07:57.165Z,92.90
2017-04-26T02:08:55.625Z,93.00
2017-04-26T02:09:54.036Z,93.10
2017-04-26T02:10:53.210Z,93.10
2017-04-26T02:11:51.649Z,93.10
2017-04-26T02:12:50.145Z,93.50
2017-04-26T02:13:48.555Z,93.10
2017-04-26T02:14:46.959Z,93.20
2017-04-26T02:15:45.478Z,93.20
2017-04-26T02:16:44.644Z,93.30
2017-04-26T02:17:43.009Z,93.40
2017-04-26T02:18:41.437Z,93.30
2017-04-26T02:19:39.831Z,93.20
2017-04-26T02:20:39.056Z,93.20
2017-04-26T02:21:38.241Z,93.10
2017-04-26T02:22:37.452Z,93.50
2017-04-26T02:23:35.859Z,93.10
2017-04-26T02:24:34.271Z,93.20
2017-04-26T02:25:33.397Z,93.30
2017-04-26T02:26:31.867Z,93.30
2017-04-26T02:27:30.404Z,93.20
2017-04-26T02:28:29.547Z,93.20
2017-04-26T02:29:29.011Z,93.10
2017-04-26T02:30:27.435Z,93.20
2017-04-26T02:31:25.871Z,93.10
2017-04-26T02:32:24.351Z,93.10
2017-04-26T02:33:22.688Z,93.00
2017-04-26T02:34:21.101Z,92.90
2017-04-26T02:35:19.551Z,92.80
2017-04-26T02:36:17.946Z,92.90
2017-04-26T02:37:16.408Z,93.00
2017-04-26T02:38:14.879Z,92.90
2017-04-26T02:39:14.032Z,92.80
2017-04-26T02:40:12.560Z,92.80
2017-04-26T02:41:11.016Z,92.70
2017-04-26T02:42:09.673Z,92.70
2017-04-26T02:43:08.434Z,92.80
2017-04-26T02:44:06.877Z,92.80
2017-04-26T02:45:05.678Z,92.90
2017-04-26T02:46:04.066Z,92.80
2017-04-26T02:47:02.434Z,92.90
2017-04-26T02:48:00.903Z,92.90
2017-04-26T02:48:59.332Z,92.90
2017-04-26T02:49:58.463Z,92.90
2017-04-26T02:50:56.872Z,93.00
2017-04-26T02:51:56.048Z,93.00
2017-04-26T02:52:54.461Z,93.10
2017-04-26T02:53:52.890Z,93.20
2017-04-26T02:54:51.380Z,93.30
2017-04-26T02:55:50.522Z,93.30
2017-04-26T02:56:48.905Z,93.20
2017-04-26T02:57:47.279Z,93.20
2017-04-26T02:58:45.721Z,93.20
2017-04-26T02:59:44.129Z,93.10
2017-04-26T03:00:42.630Z,93.20
2017-04-26T03:01:41.066Z,93.50
2017-04-26T03:02:39.433Z,93.60
2017-04-26T03:03:37.887Z,93.40
2017-04-26T03:04:36.281Z,93.60
2017-04-26T03:05:35.415Z,94.10
2017-04-26T03:06:33.847Z,94.10
2017-04-26T03:07:33.339Z,94.20
2017-04-26T03:08:32.508Z,94.20
2017-04-26T03:09:31.291Z,94.30
2017-04-26T03:10:30.411Z,94.30
2017-04-26T03:11:28.902Z,93.80
2017-04-26T03:12:27.680Z,94.00
2017-04-26T03:13:26.076Z,94.10
2017-04-26T03:14:24.482Z,94.00
2017-04-26T03:15:23.628Z,93.90
2017-04-26T03:16:22.098Z,93.80
2017-04-26T03:17:20.515Z,93.60
2017-04-26T03:18:19.012Z,93.30
2017-04-26T03:19:17.412Z,93.40
2017-04-26T03:20:16.035Z,93.50
2017-04-26T03:21:14.438Z,93.50
2017-04-26T03:22:12.995Z,93.50
2017-04-26T03:23:11.393Z,93.40
2017-04-26T03:24:09.786Z,93.20
2017-04-26T03:25:08.174Z,93.20
2017-04-26T03:26:06.671Z,93.10
2017-04-26T03:27:05.093Z,93.10
2017-04-26T03:28:05.159Z,93.50
2017-04-26T03:29:03.602Z,93.30
2017-04-26T03:30:01.984Z,92.90
2017-04-26T03:31:00.365Z,93.10
2017-04-26T03:31:58.784Z,93.10
2017-04-26T03:32:57.931Z,93.20
2017-04-26T03:33:56.336Z,93.00
2017-04-26T03:34:55.506Z,93.40
2017-04-26T03:35:53.886Z,93.30
2017-04-26T03:36:52.311Z,93.40
2017-04-26T03:37:50.965Z,93.40
2017-04-26T03:38:49.341Z,93.40
2017-04-26T03:39:48.029Z,93.40
2017-04-26T03:40:46.452Z,93.30
2017-04-26T03:41:44.940Z,93.30
2017-04-26T03:42:44.061Z,93.20
2017-04-26T03:43:42.434Z,93.30
2017-04-26T03:44:40.838Z,93.30
2017-04-26T03:45:39.234Z,93.20
2017-04-26T03:46:37.646Z,93.10
2017-04-26T03:47:36.087Z,93.10
2017-04-26T03:48:34.492Z,93.20
2017-04-26T03:49:32.949Z,93.30
2017-04-26T03:50:31.682Z,93.30
2017-04-26T03:51:30.819Z,93.10
2017-04-26T03:52:29.243Z,93.20
2017-04-26T03:53:27.660Z,93.10
2017-04-26T03:54:26.082Z,93.10
2017-04-26T03:55:24.535Z,93.10
2017-04-26T03:56:23.654Z,93.40
2017-04-26T03:57:23.289Z,93.00
2017-04-26T03:58:21.751Z,93.10
2017-04-26T03:59:20.174Z,93.00
2017-04-26T04:00:18.560Z,93.10
2017-04-26T04:01:16.995Z,93.10
2017-04-26T04:02:16.451Z,93.40
2017-04-26T04:03:14.846Z,93.10
2017-04-26T04:04:13.283Z,93.10
2017-04-26T04:05:12.074Z,93.10
2017-04-26T04:06:10.482Z,92.90
2017-04-26T04:07:09.607Z,93.00
2017-04-26T04:08:08.002Z,93.00
2017-04-26T04:09:06.407Z,92.90
2017-04-26T04:10:05.615Z,92.80
2017-04-26T04:11:04.074Z,92.80
2017-04-26T04:12:03.229Z,92.70
2017-04-26T04:13:01.705Z,92.80
2017-04-26T04:14:00.077Z,92.90
2017-04-26T04:14:58.451Z,92.90
2017-04-26T04:15:56.834Z,92.80
2017-04-26T04:17:00.507Z,92.70
2017-04-26T04:17:59.036Z,92.80
2017-04-26T04:18:57.453Z,92.80
2017-04-26T04:19:55.938Z,92.70
2017-04-26T04:20:55.049Z,92.60
2017-04-26T04:21:53.452Z,92.60
2017-04-26T04:22:51.831Z,92.70
2017-04-26T04:23:50.263Z,92.50
2017-04-26T04:24:49.034Z,92.50
2017-04-26T04:25:47.456Z,92.60
2017-04-26T04:26:45.955Z,92.80
2017-04-26T04:27:45.092Z,92.80
2017-04-26T04:28:43.533Z,92.80
2017-04-26T04:29:41.938Z,93.20
2017-04-26T04:30:40.312Z,92.90
2017-04-26T04:31:38.711Z,92.90
2017-04-26T04:32:37.860Z,92.90
2017-04-26T04:33:36.241Z,92.90
2017-04-26T04:34:34.702Z,92.90
2017-04-26T04:35:33.083Z,92.90
2017-04-26T04:36:31.535Z,92.80
2017-04-26T04:37:29.951Z,92.70
2017-04-26T04:38:29.179Z,92.80
2017-04-26T04:39:27.712Z,92.80
2017-04-26T04:40:26.131Z,92.80
2017-04-26T04:41:25.264Z,92.80
2017-04-26T04:42:23.668Z,92.90
2017-04-26T04:43:22.075Z,93.00
2017-04-26T04:44:20.539Z,93.10
2017-04-26T04:45:18.960Z,93.10
2017-04-26T04:46:17.353Z,93.20
2017-04-26T04:47:15.754Z,93.20
2017-04-26T04:48:14.139Z,93.30
2017-04-26T04:49:13.314Z,93.20
2017-04-26T04:50:12.203Z,93.10
2017-04-26T04:51:10.594Z,92.90
2017-04-26T04:52:08.984Z,92.90
2017-04-26T04:53:07.368Z,92.90
2017-04-26T04:54:05.759Z,93.00
2017-04-26T04:55:04.189Z,93.10
2017-04-26T04:56:02.678Z,93.00
2017-04-26T04:57:01.091Z,93.00
2017-04-26T04:58:00.544Z,93.30
2017-04-26T04:58:58.964Z,92.90
2017-04-26T04:59:58.104Z,92.90
2017-04-26T05:00:56.517Z,92.90
2017-04-26T05:01:55.734Z,93.00
2017-04-26T05:02:54.157Z,93.00
2017-04-26T05:03:52.621Z,93.00
2017-04-26T05:04:51.023Z,93.00
2017-04-26T05:05:50.165Z,92.90
2017-04-26T05:06:48.551Z,92.80
2017-04-26T05:07:46.960Z,92.70
2017-04-26T05:08:45.358Z,92.70
2017-04-26T05:09:43.783Z,92.70
2017-04-26T05:10:42.895Z,92.80
2017-04-26T05:11:41.302Z,92.80
2017-04-26T05:12:39.812Z,92.90
2017-04-26T05:13:38.258Z,92.90
2017-04-26T05:14:37.476Z,92.90
2017-04-26T05:15:35.929Z,92.70
2017-04-26T05:16:35.084Z,92.70
2017-04-26T05:17:33.493Z,92.60
2017-04-26T05:18:32.967Z,92.60
2017-04-26T05:19:32.090Z,92.40
2017-04-26T05:20:30.496Z,92.80
2017-04-26T05:21:28.924Z,93.00
2017-04-26T05:22:27.862Z,93.00
2017-04-26T05:23:26.295Z,92.90
2017-04-26T05:24:24.719Z,92.80
2017-04-26T05:25:24.356Z,92.70
2017-04-26T05:26:22.814Z,92.90
2017-04-26T05:27:21.189Z,92.70
2017-04-26T05:28:19.598Z,92.60
2017-04-26T05:29:18.731Z,92.70
2017-04-26T05:30:17.255Z,92.70
2017-04-26T05:31:15.633Z,92.60
2017-04-26T05:32:14.100Z,92.60
2017-04-26T05:33:12.494Z,92.60
2017-04-26T05:34:11.653Z,92.60
2017-04-26T05:35:10.103Z,92.60
2017-04-26T05:36:08.442Z,92.50
2017-04-26T05:37:06.806Z,92.40
2017-04-26T05:38:05.296Z,92.40
2017-04-26T05:39:04.327Z,92.40
2017-04-26T05:40:02.769Z,92.40
2017-04-26T05:41:01.149Z,92.30
2017-04-26T05:41:59.556Z,92.30
2017-04-26T05:42:58.700Z,92.30
2017-04-26T05:43:58.570Z,92.30
2017-04-26T05:44:56.956Z,92.30
2017-04-26T05:45:55.371Z,92.30
2017-04-26T05:46:53.800Z,92.10
2017-04-26T05:47:52.536Z,92.20
2017-04-26T05:48:51.658Z,92.30
2017-04-26T05:49:50.074Z,92.30
2017-04-26T05:50:48.438Z,92.50
2017-04-26T05:51:46.862Z,92.50
2017-04-26T05:52:45.250Z,92.40
2017-04-26T05:53:43.713Z,92.40
2017-04-26T05:54:42.120Z,92.40
2017-04-26T05:55:41.303Z,92.50
2017-04-26T05:56:39.738Z,92.20
2017-04-26T05:57:38.152Z,92.30
2017-04-26T05:58:36.555Z,92.30
2017-04-26T05:59:35.166Z,92.40
2017-04-26T06:00:33.634Z,92.30
2017-04-26T06:01:32.054Z,92.30
2017-04-26T06:02:30.412Z,92.40
2017-04-26T06:03:28.890Z,92.50
2017-04-26T06:04:28.021Z,92.40
2017-04-26T06:05:26.391Z,92.40
2017-04-26T06:06:25.546Z,92.30
2017-04-26T06:07:23.965Z,92.30
2017-04-26T06:08:22.660Z,92.20
2017-04-26T06:09:21.112Z,92.20
2017-04-26T06:10:19.481Z,92.20
2017-04-26T06:11:17.895Z,92.40
2017-04-26T06:12:16.290Z,92.40
2017-04-26T06:13:14.991Z,92.70
2017-04-26T06:14:13.431Z,92.80
2017-04-26T06:15:11.856Z,92.70
2017-04-26T06:16:10.990Z,92.60
2017-04-26T06:17:09.381Z,92.60
2017-04-26T06:18:07.790Z,92.50
2017-04-26T06:19:06.896Z,92.50
2017-04-26T06:20:05.990Z,92.40
2017-04-26T06:21:05.455Z,92.40
2017-04-26T06:22:04.600Z,92.40
2017-04-26T06:23:03.042Z,92.50
2017-04-26T06:24:01.490Z,92.50
2017-04-26T06:24:59.927Z,92.40
2017-04-26T06:25:58.342Z,92.10
2017-04-26T06:26:56.728Z,92.10
2017-04-26T06:27:55.149Z,92.10
2017-04-26T06:28:54.321Z,92.40
2017-04-26T06:29:52.718Z,92.20
2017-04-26T06:30:51.163Z,92.10
2017-04-26T06:31:49.578Z,92.00
2017-04-26T06:32:48.059Z,92.10
2017-04-26T06:33:46.437Z,92.10
2017-04-26T06:34:44.837Z,91.80
2017-04-26T06:35:43.229Z,91.80
2017-04-26T06:36:42.334Z,91.90
2017-04-26T06:37:40.747Z,91.90
2017-04-26T06:38:39.157Z,91.90
2017-04-26T06:39:38.320Z,92.00
2017-04-26T06:40:37.562Z,91.90
2017-04-26T06:41:35.946Z,91.90
2017-04-26T06:42:34.359Z,92.00
2017-04-26T06:43:33.584Z,91.90
2017-04-26T06:44:32.000Z,91.90
2017-04-26T06:45:30.401Z,91.80
2017-04-26T06:46:28.802Z,91.80
2017-04-26T06:47:27.216Z,91.80
2017-04-26T06:48:25.662Z,91.80
2017-04-26T06:49:24.207Z,91.80
2017-04-26T06:50:22.664Z,92.00
2017-04-26T06:51:21.035Z,91.80
2017-04-26T06:52:19.401Z,91.60
2017-04-26T06:53:17.799Z,91.50
2017-04-26T06:54:16.166Z,91.40
2017-04-26T06:55:14.645Z,91.60
2017-04-26T06:56:13.383Z,91.50
2017-04-26T06:57:11.818Z,91.60
2017-04-26T06:58:10.189Z,91.70
2017-04-26T06:59:08.641Z,91.70
2017-04-26T07:00:07.202Z,91.60
2017-04-26T07:01:05.666Z,91.50
2017-04-26T07:02:04.104Z,91.50
2017-04-26T07:03:06.269Z,91.40
2017-04-26T07:04:05.180Z,91.30
2017-04-26T07:05:03.606Z,91.40
2017-04-26T07:06:02.397Z,91.60
2017-04-26T07:07:01.150Z,91.90
2017-04-26T07:08:00.850Z,91.90
2017-04-26T07:09:00.070Z,91.60
2017-04-26T07:09:58.473Z,91.50
2017-04-26T07:10:56.900Z,91.50
2017-04-26T07:11:55.283Z,91.40
2017-04-26T07:12:54.190Z,91.30
2017-04-26T07:13:52.614Z,91.30
2017-04-26T07:14:50.995Z,91.50
2017-04-26T07:15:49.393Z,91.20
2017-04-26T07:16:47.794Z,91.20
2017-04-26T07:17:46.934Z,91.10
2017-04-26T07:18:45.375Z,91.20
2017-04-26T07:19:43.882Z,91.20
2017-04-26T07:20:42.314Z,91.20
2017-04-26T07:21:41.115Z,91.40
2017-04-26T07:22:39.523Z,91.10
2017-04-26T07:23:37.939Z,91.20
2017-04-26T07:24:36.414Z,91.20
2017-04-26T07:25:35.173Z,91.30
2017-04-26T07:26:33.613Z,91.10
2017-04-26T07:27:32.316Z,91.00
2017-04-26T07:28:31.512Z,90.90
2017-04-26T07:29:29.954Z,90.90
2017-04-26T07:30:29.078Z,90.70
2017-04-26T07:31:27.546Z,90.80
2017-04-26T07:32:26.330Z,90.90
2017-04-26T07:33:24.740Z,91.00
2017-04-26T07:34:23.871Z,91.00
2017-04-26T07:35:22.269Z,90.60
2017-04-26T07:36:20.768Z,90.50
2017-04-26T07:37:19.202Z,90.40
2017-04-26T07:38:17.590Z,90.30
2017-04-26T07:39:16.061Z,90.30
2017-04-26T07:40:14.485Z,90.50
2017-04-26T07:41:13.643Z,90.80
2017-04-26T07:42:12.026Z,90.90
2017-04-26T07:43:10.793Z,90.80
2017-04-26T07:44:09.847Z,90.80
2017-04-26T07:45:08.214Z,90.90
2017-04-26T07:46:06.645Z,91.00
2017-04-26T07:47:05.039Z,90.90
2017-04-26T07:48:03.443Z,90.90
2017-04-26T07:49:01.884Z,90.90
2017-04-26T07:50:00.268Z,90.90
2017-04-26T07:50:58.652Z,91.00
2017-04-26T07:51:57.081Z,91.00
2017-04-26T07:52:55.503Z,90.80
2017-04-26T07:53:53.942Z,90.80
2017-04-26T07:54:52.754Z,90.80
2017-04-26T07:55:51.134Z,91.10
2017-04-26T07:56:50.307Z,91.10
2017-04-26T07:57:48.706Z,91.10
2017-04-26T07:58:47.141Z,91.10
2017-04-26T07:59:45.543Z,90.90
2017-04-26T08:00:44.065Z,90.80
2017-04-26T08:01:42.527Z,90.70
2017-04-26T08:02:40.923Z,90.80
2017-04-26T08:03:39.293Z,90.80
2017-04-26T08:04:37.669Z,90.80
2017-04-26T08:05:36.801Z,90.80
2017-04-26T08:06:35.245Z,90.70
2017-04-26T08:07:33.609Z,90.80
2017-04-26T08:08:32.777Z,91.00
2017-04-26T08:09:31.189Z,91.00
2017-04-26T08:10:29.588Z,91.10
2017-04-26T08:11:28.013Z,91.10
2017-04-26T08:12:26.424Z,91.00
2017-04-26T08:13:25.579Z,90.90
2017-04-26T08:14:23.955Z,90.80
2017-04-26T08:15:22.383Z,91.00
2017-04-26T08:16:20.799Z,91.30
2017-04-26T08:17:19.203Z,91.40
2017-04-26T08:18:17.660Z,91.20
2017-04-26T08:19:16.036Z,91.00
2017-04-26T08:20:14.501Z,91.00
2017-04-26T08:21:12.966Z,90.70
2017-04-26T08:22:11.348Z,90.90
2017-04-26T08:24:08.617Z,91.00
2017-04-26T08:25:07.076Z,90.90
2017-04-26T08:26:05.528Z,91.10
2017-04-26T08:27:03.951Z,91.20
2017-04-26T08:28:02.348Z,90.60
2017-04-26T08:29:00.733Z,90.50
2017-04-26T08:29:59.884Z,90.60
2017-04-26T08:30:58.329Z,90.60
2017-04-26T08:31:56.715Z,90.50
2017-04-26T08:32:55.880Z,90.60
2017-04-26T08:33:55.054Z,90.50
2017-04-26T08:34:53.562Z,90.40
2017-04-26T08:35:51.976Z,90.40
2017-04-26T08:36:50.418Z,90.30
2017-04-26T08:37:48.794Z,90.70
2017-04-26T08:38:47.202Z,90.60
2017-04-26T08:39:45.585Z,90.50
2017-04-26T08:40:44.744Z,90.60
2017-04-26T08:41:43.230Z,90.20
2017-04-26T08:42:41.648Z,90.20
2017-04-26T08:43:40.024Z,89.90
2017-04-26T08:44:38.406Z,89.10
2017-04-26T08:45:36.803Z,89.40
2017-04-26T08:46:35.217Z,89.60
2017-04-26T08:47:33.674Z,90.00
2017-04-26T08:48:32.151Z,90.00
2017-04-26T08:49:30.581Z,90.00
2017-04-26T08:50:29.172Z,90.20
2017-04-26T08:51:27.580Z,90.20
2017-04-26T08:52:26.018Z,90.30
2017-04-26T08:53:24.475Z,90.40
2017-04-26T08:54:22.874Z,90.50
2017-04-26T08:55:21.277Z,90.40
2017-04-26T08:56:19.676Z,90.40
2017-04-26T08:57:18.507Z,90.30
2017-04-26T08:58:16.961Z,90.20
2017-04-26T08:59:15.698Z,90.30
2017-04-26T09:00:14.250Z,90.20
2017-04-26T09:01:12.732Z,90.40
2017-04-26T09:02:11.214Z,90.40
2017-04-26T09:03:10.398Z,90.20
2017-04-26T09:04:08.828Z,90.40
2017-04-26T09:05:07.657Z,90.50
2017-04-26T09:06:06.132Z,90.50
2017-04-26T09:07:04.581Z,90.50
2017-04-26T09:08:02.946Z,90.30
2017-04-26T09:09:01.396Z,90.20
2017-04-26T09:09:59.812Z,90.10
2017-04-26T09:10:58.259Z,90.00
2017-04-26T09:11:56.674Z,89.50
2017-04-26T09:12:55.077Z,89.50
2017-04-26T09:13:53.530Z,88.90
2017-04-26T09:14:51.980Z,89.10
2017-04-26T09:15:51.140Z,89.10
2017-04-26T09:16:49.574Z,89.20
2017-04-26T09:17:48.027Z,88.80
2017-04-26T09:18:46.440Z,88.70
2017-04-26T09:19:44.895Z,88.50
2017-04-26T09:20:43.293Z,88.30
2017-04-26T09:21:41.724Z,88.00
2017-04-26T09:22:40.104Z,87.40
2017-04-26T09:23:38.481Z,86.60
2017-04-26T09:24:36.869Z,86.60
2017-04-26T09:25:35.284Z,86.30
2017-04-26T09:26:33.692Z,85.90
2017-04-26T09:27:32.523Z,85.00
2017-04-26T09:28:30.952Z,85.70
2017-04-26T09:29:29.639Z,86.00
2017-04-26T09:30:28.773Z,86.80
2017-04-26T09:31:27.194Z,85.80
2017-04-26T09:32:26.315Z,86.00
2017-04-26T09:33:24.759Z,85.10
2017-04-26T09:34:23.889Z,85.20
2017-04-26T09:35:22.304Z,84.60
2017-04-26T09:36:20.735Z,84.40
2017-04-26T09:37:19.103Z,83.80
2017-04-26T09:38:17.517Z,83.70
2017-04-26T09:39:15.953Z,82.90
2017-04-26T09:40:14.377Z,83.70
2017-04-26T09:41:12.797Z,83.70
2017-04-26T09:42:11.241Z,83.80
2017-04-26T09:43:09.676Z,84.00
2017-04-26T09:44:08.781Z,83.80
2017-04-26T09:45:07.135Z,83.60
2017-04-26T09:46:05.531Z,84.10
2017-04-26T09:47:03.982Z,84.80
2017-04-26T09:48:02.451Z,84.30
2017-04-26T09:49:00.847Z,84.30
2017-04-26T09:49:59.227Z,84.40
2017-04-26T09:50:58.346Z,84.80
2017-04-26T09:51:56.745Z,85.40
2017-04-26T09:52:55.164Z,86.30
2017-04-26T09:53:53.560Z,84.60
2017-04-26T09:54:52.696Z,84.50
2017-04-26T09:55:51.103Z,84.80
2017-04-26T09:56:49.550Z,84.60
2017-04-26T09:57:47.955Z,86.00
2017-04-26T09:58:47.164Z,84.60
2017-04-26T09:59:45.563Z,83.90
2017-04-26T10:00:43.971Z,84.40
2017-04-26T10:01:42.374Z,83.60
2017-04-26T10:02:40.798Z,83.20
2017-04-26T10:03:39.184Z,83.10
2017-04-26T10:04:38.769Z,84.20
2017-04-26T10:05:37.182Z,83.00
2017-04-26T10:06:35.598Z,83.30
2017-04-26T10:07:33.965Z,83.60
2017-04-26T10:08:32.459Z,84.90
2017-04-26T10:09:31.634Z,85.20
2017-04-26T10:10:30.117Z,86.00
2017-04-26T10:11:28.479Z,86.30
2017-04-26T10:12:26.864Z,85.30
2017-04-26T10:13:26.039Z,86.40
2017-04-26T10:14:24.488Z,86.30
2017-04-26T10:15:22.894Z,85.40
2017-04-26T10:16:22.070Z,84.80
2017-04-26T10:17:21.193Z,85.80
2017-04-26T10:18:19.590Z,85.60
2017-04-26T10:19:17.982Z,85.90
2017-04-26T10:20:16.363Z,86.20
2017-04-26T10:21:15.530Z,85.50
2017-04-26T10:22:13.994Z,85.60
2017-04-26T10:23:12.461Z,84.90
2017-04-26T10:24:10.899Z,83.70
2017-04-26T10:25:09.297Z,82.90
2017-04-26T10:26:07.729Z,83.00
2017-04-26T10:27:06.113Z,83.60
2017-04-26T10:28:04.532Z,84.30
2017-04-26T10:29:02.932Z,85.20
2017-04-26T10:30:01.332Z,85.50
2017-04-26T10:30:59.702Z,85.70
2017-04-26T10:31:58.123Z,85.50
2017-04-26T10:32:57.256Z,85.80
2017-04-26T10:33:55.670Z,86.90
2017-04-26T10:34:54.767Z,87.80
2017-04-26T10:35:53.958Z,87.40
2017-04-26T10:36:52.362Z,88.40
2017-04-26T10:37:50.747Z,88.60
2017-04-26T10:38:49.194Z,87.50
2017-04-26T10:39:47.607Z,87.20
2017-04-26T10:40:46.014Z,86.50
2017-04-26T10:41:44.480Z,87.10
2017-04-26T10:42:42.922Z,86.90
2017-04-26T10:43:41.393Z,86.70
2017-04-26T10:44:39.882Z,87.10
2017-04-26T10:45:39.043Z,86.40
2017-04-26T10:46:37.487Z,86.00
2017-04-26T10:47:36.346Z,85.10
2017-04-26T10:48:34.719Z,85.50
2017-04-26T10:49:33.110Z,84.90
2017-04-26T10:50:31.570Z,84.80
2017-04-26T10:51:29.959Z,85.00
2017-04-26T10:52:28.354Z,84.80
2017-04-26T10:53:27.544Z,85.70
2017-04-26T10:54:26.786Z,85.60
2017-04-26T10:55:25.203Z,85.70
2017-04-26T10:56:23.621Z,85.50
2017-04-26T10:57:22.040Z,85.30
2017-04-26T10:58:21.196Z,86.90
2017-04-26T10:59:20.371Z,86.40
2017-04-26T11:00:18.833Z,86.30
2017-04-26T11:01:17.305Z,86.20
2017-04-26T11:02:15.708Z,86.00
2017-04-26T11:03:14.165Z,86.00
2017-04-26T11:04:12.550Z,85.90
2017-04-26T11:05:11.021Z,85.20
2017-04-26T11:06:09.407Z,85.20
2017-04-26T11:07:08.547Z,84.90
2017-04-26T11:08:07.038Z,85.10
2017-04-26T11:09:05.520Z,84.90
2017-04-26T11:10:04.001Z,85.30
2017-04-26T11:11:03.315Z,85.90
2017-04-26T11:12:01.701Z,85.80
2017-04-26T11:13:00.085Z,86.20
2017-04-26T11:13:58.487Z,86.40
2017-04-26T11:14:57.659Z,87.20
2017-04-26T11:15:56.149Z,86.20
2017-04-26T11:16:54.591Z,86.00
2017-04-26T11:17:53.022Z,86.30
2017-04-26T11:18:51.419Z,86.00
2017-04-26T11:19:50.603Z,86.40
2017-04-26T11:20:49.000Z,86.40
2017-04-26T11:21:47.437Z,86.50
2017-04-26T11:22:48.015Z,86.20
2017-04-26T11:23:44.258Z,87.30
2017-04-26T11:24:42.607Z,87.70
2017-04-26T11:25:41.012Z,87.20
2017-04-26T11:26:39.446Z,86.40
2017-04-26T11:27:38.585Z,86.20
2017-04-26T11:28:37.740Z,86.20
2017-04-26T11:29:36.152Z,86.20
2017-04-26T11:30:34.566Z,86.30
2017-04-26T11:31:33.029Z,86.40
2017-04-26T11:32:32.276Z,86.90
2017-04-26T11:33:31.749Z,86.20
2017-04-26T11:34:30.141Z,86.80
2017-04-26T11:35:28.553Z,85.30
2017-04-26T11:36:26.974Z,85.10
2017-04-26T11:37:26.100Z,84.80
2017-04-26T11:38:24.556Z,84.10
2017-04-26T11:39:22.981Z,83.80
2017-04-26T11:40:21.415Z,83.50
2017-04-26T11:41:20.551Z,84.00
2017-04-26T11:42:18.958Z,84.00
2017-04-26T11:43:18.156Z,84.60
2017-04-26T11:44:18.935Z,85.20
2017-04-26T11:45:17.682Z,85.40
2017-04-26T11:46:16.071Z,86.30
2017-04-26T11:47:14.457Z,85.10
2017-04-26T11:48:12.864Z,85.00
2017-04-26T11:49:11.993Z,85.90
2017-04-26T11:50:10.420Z,85.70
2017-04-26T11:51:09.509Z,85.80
2017-04-26T11:52:08.635Z,85.00
2017-04-26T11:53:07.069Z,85.00
2017-04-26T11:54:05.500Z,84.60
2017-04-26T11:55:03.973Z,84.70
2017-04-26T11:56:02.356Z,84.50
2017-04-26T11:57:00.777Z,85.00
2017-04-26T11:57:59.174Z,85.20
2017-04-26T11:58:57.569Z,84.80
2017-04-26T11:59:56.093Z,85.00
2017-04-26T12:00:55.238Z,84.60
2017-04-26T12:01:54.408Z,83.70
2017-04-26T12:02:52.823Z,83.10
2017-04-26T12:03:51.212Z,84.20
2017-04-26T12:04:49.877Z,84.40
2017-04-26T12:05:48.308Z,83.80
2017-04-26T12:06:47.445Z,84.20
2017-04-26T12:07:45.907Z,83.50
2017-04-26T12:08:44.299Z,83.60
2017-04-26T12:09:42.656Z,83.10
2017-04-26T12:10:41.057Z,83.30
2017-04-26T12:11:39.514Z,83.50
2017-04-26T12:12:38.238Z,84.10
2017-04-26T12:13:36.671Z,83.50
2017-04-26T12:14:35.067Z,83.40
2017-04-26T12:15:33.449Z,83.50
2017-04-26T12:16:31.872Z,84.10
2017-04-26T12:17:30.349Z,81.80
2017-04-26T12:18:28.727Z,84.40
2017-04-26T12:19:27.872Z,83.60
2017-04-26T12:20:26.279Z,84.60
2017-04-26T12:21:24.663Z,84.60
2017-04-26T12:22:23.813Z,85.00
2017-04-26T12:23:22.202Z,85.00
2017-04-26T12:24:20.596Z,85.70
2017-04-26T12:25:19.029Z,85.60
2017-04-26T12:26:17.454Z,85.20
2017-04-26T12:27:15.882Z,85.50
2017-04-26T12:28:15.059Z,85.10
2017-04-26T12:29:13.510Z,84.60
2017-04-26T12:30:11.918Z,85.20
2017-04-26T12:31:11.048Z,84.10
2017-04-26T12:32:09.458Z,84.10
2017-04-26T12:33:07.885Z,83.80
2017-04-26T12:34:06.304Z,82.90
2017-04-26T12:35:05.499Z,82.70
2017-04-26T12:36:04.672Z,82.70
2017-04-26T12:37:03.094Z,82.70
2017-04-26T12:38:01.536Z,82.50